Deridder, Louisiana
Current Conditions -  °F | °C
As of 11:35 AM on Saturday 25 Oct 2014 (Local Time) from KDRI Reporting Station
Clear Clear  
Wind Chill: 73°   Ceiling: Unl
Heat Index: 73°   Visibility: 10mi
Dew Point: 54°   Wind: 0mph
Humidity: 51%   Direction: NA
Pressure: 30.2"   Gusts: NA
Location:  30.85°N, 93.29°W
Report Text: KDRI 251635Z AUTO 00000KT 10SM CLR 23/12 A3020 RMK AO2 T02300124
Loading
Personal Weather Stations






























Interactive Weather Map
Tropical Storm Tracking
New forecast layout! Learn more

10-Day Weather Forecast

Advertisements
Track Severe Weather on mobile